Hlavní strana
METAR-TAF:

METAR-TAF

Letiště :

Letiště Kyjev-Žuljany

Kyjev, Ukrajina

zeměpisná šířka: 50-24N, zeměpisná délka: 030-34E, výška: 166 m

Aktuální stav počasí

Zpráva byla vytvořena před 35 minutami, v 22:00 UTC
Východojihovýchodní vítr 12 kt
Teplota -7°C
Vlhkost vzduchu 62%
Tlak 1034 hPa
Viditelnost 10 km a více
Žádná oblačnost pod 1500 m, nevyskytují se cumulonimby.

METAR: UKKK 222200Z 11006MPS CAVOK M07/M13 Q1034 R08/190060 NOSIG

Čas: 00:35 (22:35 UTC)

Předpověď počasí

Zpráva byla vytvořena před 5 hodinami a 32 minutami, v 17:03 UTC
Předpověď platná od 22 v 18 UTC do 23 v 18 UTC
Východojihovýchodní vítr 10 kt s nárazy do 21 kt
Viditelnost 10 km a více
Polojasno ve výšce 3000 ft
Dočasný
od 23 v 00 UTC do 23 v 06 UTC
Viditelnost: 2000 m
Polojasno ve výšce 500 ft
kouřmo

TAF: UKKK 221703Z 2218/2318 12005G11MPS 9999 SCT030 TXM03/2312Z TNM09/2305Z TEMPO 2300/2306 2000 BR SCT005

Stav a předpovědi počasí z více než 4 000 letišť (zprávy METAR a TAF).

Červené a žluté tečky na mapě představují dostupné meteorologické stanice.

Když kurzor umístíte na tečku, zobrazí se název stanice.

Pak kliknutím zobrazíte stav a předpověď počasí.

Chcete-li změnit mapu, kliknutím na zelené tlačítko se znaménkem +mapu přiblížíte, kliknutím na zelené tlačítko se znaménkem – mapu oddálíte a kliknutím na zelené šipky přejdete na sousední mapy.


METAR-TAF: